Waskish, MN

5:57 AM CDT on August 23, 2017 (GMT -0500)
Waskish Municipal

Weather History for KVWU - December, 2013

Change the Weather History Date:

Sunday, December 29, 2013

  Actual Average (KBDE) Record (KBDE)
Temperature  
Mean Temperature -17 °F -  
Max Temperature -9 °F 14 °F 39 °F (1965)
Min Temperature -25 °F -6 °F -40 °F (1938)
Degree Days  
Heating Degree Days 82    
Moisture  
Dew Point -23 °F    
Average Humidity 74    
Maximum Humidity 84    
Minimum Humidity 64    
Precipitation  
Precipitation 0.00 in - - ()
Sea Level Pressure  
Sea Level Pressure 30.25 in    
Wind  
Wind Speed 7 mph (WSW)    
Max Wind Speed 10 mph    
Max Gust Speed 16 mph    
Visibility 10 miles    
Events      
Averages and records for this station are not official NWS values.
T = Trace of Precipitation, MM = Missing Value Source: NWS Daily Summary

Daily Weather History Graph

Daily Weather History Graph

Search for Another Location

Airport or City:

Trip Planner

Search our weather history database for the weather conditions in past years. The results will help you decide how hot, cold, wet, or windy it might be!

Date:

Astronomy

Dec. 29, 2013 Rise Set
Actual Time 8:08 AM CST 4:32 PM CST
Civil Twilight 7:31 AM CST 5:08 PM CST
Nautical Twilight 6:52 AM CST 5:48 PM CST
Astronomical Twilight 6:14 AM CST 6:26 PM CST
Moon 4:46 AM CST (12/29) 2:16 PM CST (12/29)
Length of Visible Light 9h 36m
Length of Day
8h 23m
Waning Crescent, 11% of the Moon is Illuminated
Dec 29
Waning Crescent
Jan 1
New
Jan 7
First Quarter
Jan 15
Full
Jan 23
Last Quarter

Hourly Weather History & Observations

Time (CST) Temp. Windchill Dew Point Humidity Pressure Visibility Wind Dir Wind Speed Gust Speed Precip Events Conditions
12:14 AM -9.4 °F -25.6 °F -14.8 °F 77% 30.28 in 10.0 mi NNW 8.1 mph 16.1 mph N/A   Clear
12:33 AM -11.2 °F -24.8 °F -16.6 °F 77% 30.28 in 10.0 mi NNW 5.8 mph - N/A   Clear
12:54 AM -11.2 °F -30.1 °F -16.6 °F 77% 30.28 in 10.0 mi NW 10.4 mph - N/A   Clear
1:14 AM -13.0 °F -31.3 °F -16.6 °F 84% 30.29 in 10.0 mi NW 9.2 mph - N/A   Clear
1:33 AM -13.0 °F -31.3 °F -18.4 °F 77% 30.30 in 10.0 mi NW 9.2 mph - N/A   Clear
1:54 AM -14.8 °F -30.8 °F -18.4 °F 84% 30.30 in 10.0 mi NW 6.9 mph - N/A   Clear
2:14 AM -14.8 °F -32.2 °F -20.2 °F 77% 30.31 in 10.0 mi NW 8.1 mph - N/A   Clear
2:33 AM -16.6 °F -34.4 °F -20.2 °F 84% 30.31 in 10.0 mi NW 8.1 mph - N/A   Clear
2:54 AM -16.6 °F -32.9 °F -20.2 °F 84% 30.32 in 10.0 mi NW 6.9 mph - N/A   Clear
3:14 AM -16.6 °F -34.4 °F -22.0 °F 76% 30.33 in 10.0 mi NW 8.1 mph - N/A   Clear
3:33 AM -16.6 °F -32.9 °F -22.0 °F 76% 30.33 in 10.0 mi NW 6.9 mph - N/A   Clear
3:54 AM -16.6 °F -34.4 °F -22.0 °F 76% 30.33 in 10.0 mi NW 8.1 mph - N/A   Mostly Cloudy
4:14 AM -16.6 °F -35.7 °F -23.8 °F 70% 30.33 in 10.0 mi NW 9.2 mph - N/A   Overcast
4:33 AM -18.4 °F -36.6 °F -23.8 °F 76% 30.33 in 10.0 mi WNW 8.1 mph - N/A   Overcast
4:54 AM -18.4 °F -36.6 °F -23.8 °F 76% 30.34 in 10.0 mi WNW 8.1 mph - N/A   Overcast
5:14 AM -18.4 °F -36.6 °F -23.8 °F 76% 30.34 in 10.0 mi NW 8.1 mph - N/A   Overcast
5:33 AM -18.4 °F -33.4 °F -23.8 °F 76% 30.34 in 10.0 mi WNW 5.8 mph - N/A   Overcast
5:54 AM -18.4 °F -36.6 °F -23.8 °F 76% 30.34 in 10.0 mi WNW 8.1 mph - N/A   Overcast
6:14 AM -18.4 °F -36.6 °F -25.6 °F 70% 30.34 in 10.0 mi WNW 8.1 mph - N/A   Scattered Clouds
6:33 AM -20.2 °F -37.3 °F -25.6 °F 76% 30.34 in 10.0 mi NW 6.9 mph - N/A   Clear
6:54 AM -22.0 °F -41.0 °F -27.4 °F 76% 30.34 in 10.0 mi WNW 8.1 mph - N/A   Clear
7:14 AM -22.0 °F -37.7 °F -27.4 °F 76% 30.34 in 10.0 mi WNW 5.8 mph - N/A   Clear
7:33 AM -23.8 °F -35.0 °F -29.2 °F 76% 30.34 in 10.0 mi West 3.5 mph - N/A   Clear
7:54 AM -23.8 °F -35.0 °F -29.2 °F 76% 30.34 in 10.0 mi West 3.5 mph - N/A   Clear
8:14 AM -25.6 °F -39.8 °F -31.0 °F 76% 30.33 in 10.0 mi WSW 4.6 mph - N/A   Clear
8:33 AM -25.6 °F -37.1 °F -31.0 °F 76% 30.33 in 10.0 mi WSW 3.5 mph - N/A   Clear
8:54 AM -23.8 °F -37.7 °F -29.2 °F 76% 30.33 in 10.0 mi WSW 4.6 mph - N/A   Clear
9:14 AM -23.8 °F -39.8 °F -29.2 °F 76% 30.33 in 10.0 mi WSW 5.8 mph - N/A   Clear
9:33 AM -22.0 °F -39.4 °F -27.4 °F 76% 30.33 in 10.0 mi WSW 6.9 mph - N/A   Clear
9:54 AM -22.0 °F -41.0 °F -27.4 °F 76% 30.33 in 10.0 mi SW 8.1 mph - N/A   Clear
10:14 AM -20.2 °F -40.1 °F -27.4 °F 69% 30.34 in 10.0 mi WSW 9.2 mph - N/A   Clear
10:33 AM -20.2 °F -38.8 °F -27.4 °F 69% 30.34 in 10.0 mi WSW 8.1 mph - N/A   Clear
10:54 AM -20.2 °F -40.1 °F -25.6 °F 76% 30.34 in 10.0 mi SW 9.2 mph - N/A   Clear
11:14 AM -18.4 °F -35.1 °F -25.6 °F 70% 30.33 in 10.0 mi SW 6.9 mph - N/A   Clear
11:33 AM -18.4 °F -35.1 °F -25.6 °F 70% 30.31 in 10.0 mi SW 6.9 mph - N/A   Clear
11:54 AM -16.6 °F -31.3 °F -23.8 °F 70% 30.30 in 10.0 mi SW 5.8 mph - N/A   Clear
12:14 PM -16.6 °F -32.9 °F -23.8 °F 70% 30.29 in 10.0 mi SW 6.9 mph - N/A   Clear
12:33 PM -14.8 °F -29.1 °F -23.8 °F 64% 30.27 in 10.0 mi SSW 5.8 mph - N/A   Clear
12:54 PM -14.8 °F -30.8 °F -22.0 °F 70% 30.26 in 10.0 mi SW 6.9 mph - N/A   Clear
1:14 PM -14.8 °F -29.1 °F -22.0 °F 70% 30.26 in 10.0 mi SW 5.8 mph - N/A   Clear
1:33 PM -13.0 °F -28.6 °F -22.0 °F 64% 30.25 in 10.0 mi SW 6.9 mph - N/A   Clear
1:54 PM -11.2 °F -24.8 °F -20.2 °F 64% 30.24 in 10.0 mi SW 5.8 mph - N/A   Clear
2:13 PM -11.2 °F -20.6 °F -20.2 °F 64% 30.24 in 10.0 mi WSW 3.5 mph - N/A   Clear
2:34 PM -11.2 °F -20.6 °F -20.2 °F 64% 30.23 in 10.0 mi WSW 3.5 mph - N/A   Clear
2:54 PM -11.2 °F -24.8 °F -20.2 °F 64% 30.22 in 10.0 mi SW 5.8 mph - N/A   Clear
3:13 PM -11.2 °F -27.8 °F -20.2 °F 64% 30.22 in 10.0 mi SSW 8.1 mph - N/A   Clear
3:34 PM -11.2 °F -24.8 °F -20.2 °F 64% 30.21 in 10.0 mi SSW 5.8 mph - N/A   Clear
3:54 PM -11.2 °F -27.8 °F -20.2 °F 64% 30.21 in 10.0 mi SW 8.1 mph - N/A   Clear
4:13 PM -14.8 °F -30.8 °F -20.2 °F 77% 30.21 in 10.0 mi SW 6.9 mph - N/A   Clear
4:33 PM -14.8 °F -32.2 °F -22.0 °F 70% 30.20 in 10.0 mi SW 8.1 mph - N/A   Clear
4:54 PM -16.6 °F -35.7 °F -22.0 °F 76% 30.20 in 10.0 mi SW 9.2 mph - N/A   Clear
5:13 PM -14.8 °F -33.5 °F -22.0 °F 70% 30.19 in 10.0 mi SW 9.2 mph - N/A   Clear
5:33 PM -16.6 °F -31.3 °F -23.8 °F 70% 30.18 in 10.0 mi SW 5.8 mph - N/A   Clear
5:54 PM -16.6 °F -31.3 °F -23.8 °F 70% 30.18 in 10.0 mi SW 5.8 mph - N/A   Clear
6:13 PM -16.6 °F -32.9 °F -23.8 °F 70% 30.17 in 10.0 mi SW 6.9 mph - N/A   Clear
6:33 PM -14.8 °F -33.5 °F -22.0 °F 70% 30.17 in 10.0 mi SW 9.2 mph - N/A   Clear
6:54 PM -16.6 °F -35.7 °F -22.0 °F 76% 30.16 in 10.0 mi SW 9.2 mph - N/A   Clear
7:13 PM -16.6 °F -32.9 °F -22.0 °F 76% 30.16 in 10.0 mi SW 6.9 mph - N/A   Clear
7:34 PM -16.6 °F -31.3 °F -23.8 °F 70% 30.15 in 10.0 mi SW 5.8 mph - N/A   Clear
7:54 PM -16.6 °F -31.3 °F -23.8 °F 70% 30.16 in 10.0 mi SW 5.8 mph - N/A   Clear
8:13 PM -16.6 °F -31.3 °F -23.8 °F 70% 30.15 in 10.0 mi SSW 5.8 mph - N/A   Clear
8:34 PM -18.4 °F -35.1 °F -23.8 °F 76% 30.15 in 10.0 mi SW 6.9 mph - N/A   Clear
8:54 PM -18.4 °F -33.4 °F -23.8 °F 76% 30.15 in 10.0 mi SSW 5.8 mph - N/A   Clear
9:13 PM -18.4 °F -35.1 °F -23.8 °F 76% 30.14 in 10.0 mi SSW 6.9 mph - N/A   Clear
9:34 PM -18.4 °F -36.6 °F -23.8 °F 76% 30.14 in 10.0 mi SSW 8.1 mph - N/A   Clear
9:53 PM -16.6 °F -32.9 °F -22.0 °F 76% 30.14 in 10.0 mi SW 6.9 mph - N/A   Clear
10:13 PM -16.6 °F -31.3 °F -22.0 °F 76% 30.13 in 10.0 mi SSW 5.8 mph - N/A   Clear
10:34 PM -18.4 °F -28.9 °F -23.8 °F 76% 30.13 in 10.0 mi SSW 3.5 mph - N/A   Clear
10:53 PM -18.4 °F - -23.8 °F 76% 30.13 in 10.0 mi Calm Calm - N/A   Clear
11:13 PM -20.2 °F - -25.6 °F 76% 30.13 in 10.0 mi Calm Calm - N/A   Clear
11:34 PM -23.8 °F - -27.4 °F 83% 30.14 in 10.0 mi Calm Calm - N/A   Clear
11:53 PM -25.6 °F - -31.0 °F 76% 30.13 in 10.0 mi Calm Calm - N/A   Clear